Hatfield, Indiana
Current Conditions -  °F | °C
As of 4:56 PM on Saturday 20 Dec 2014 (Local Time) from KOWB Reporting Station
Clear Clear  
Wind Chill: 37°   Ceiling: Unl
Heat Index: 37°   Visibility: 10mi
Dew Point: 27°   Wind: 0mph
Humidity: 68%   Direction: NA
Pressure: 30.29"   Gusts: NA
Location:  37.9°N, 87.22°W
Report Text: KOWB 202256Z 00000KT 10SM CLR 03/M03 A3029 RMK AO2 T00271027 SLP259
Loading
Personal Weather Stations






























Interactive Weather Map New forecast layout! Learn more

10-Day Weather Forecast

Advertisements
Track Severe Weather on mobile